createdAt,value
2023-03-15T00:00:59.991Z,22.16
2023-03-15T00:05:00.229Z,22.16
2023-03-15T00:09:00.402Z,22.15
2023-03-15T00:13:00.621Z,22.15
2023-03-15T00:17:00.840Z,22.15
2023-03-15T00:21:00.820Z,22.15
2023-03-15T00:25:00.784Z,22.13
2023-03-15T00:29:00.770Z,22.12
2023-03-15T00:33:00.694Z,22.10
2023-03-15T00:37:00.686Z,22.11
2023-03-15T00:41:00.631Z,22.11
2023-03-15T00:45:00.712Z,22.10
2023-03-15T00:49:00.545Z,22.09
2023-03-15T00:53:00.507Z,22.08
2023-03-15T00:57:00.460Z,22.08
2023-03-15T01:01:00.679Z,22.06
2023-03-15T01:05:00.673Z,22.07
2023-03-15T01:09:00.608Z,22.07
2023-03-15T01:13:00.605Z,22.06
2023-03-15T01:17:00.533Z,22.05
2023-03-15T01:21:00.510Z,22.04
2023-03-15T01:25:00.435Z,22.04
2023-03-15T01:29:00.433Z,22.03
2023-03-15T01:33:01.096Z,22.03
2023-03-15T01:37:00.354Z,22.02
2023-03-15T01:41:00.502Z,22.01
2023-03-15T01:45:00.453Z,22.02
2023-03-15T01:49:00.409Z,22.00
2023-03-15T01:53:00.343Z,22.00
2023-03-15T01:57:00.353Z,22.00
2023-03-15T02:01:00.472Z,22.00
2023-03-15T02:05:00.285Z,21.99
2023-03-15T02:09:00.209Z,21.98
2023-03-15T02:13:00.203Z,21.98
2023-03-15T02:17:00.169Z,21.98
2023-03-15T02:21:00.118Z,21.98
2023-03-15T02:25:00.320Z,21.98
2023-03-15T02:29:00.251Z,21.98
2023-03-15T02:33:00.301Z,21.97
2023-03-15T02:37:00.210Z,21.97
2023-03-15T02:41:00.186Z,21.97
2023-03-15T02:45:00.157Z,21.97
2023-03-15T02:49:00.132Z,21.96
2023-03-15T02:53:00.132Z,21.96
2023-03-15T02:57:00.012Z,21.95
2023-03-15T03:01:00.091Z,21.95
2023-03-15T03:05:00.057Z,21.94
2023-03-15T03:09:00.010Z,21.94
2023-03-15T03:12:59.965Z,21.94
2023-03-15T03:16:59.994Z,21.92
2023-03-15T03:20:59.909Z,21.92
2023-03-15T03:24:59.876Z,21.92
2023-03-15T03:28:59.860Z,21.91
2023-03-15T03:32:59.861Z,21.90
2023-03-15T03:36:59.759Z,21.90
2023-03-15T03:40:59.733Z,21.88
2023-03-15T03:44:59.656Z,21.88
2023-03-15T03:48:59.646Z,21.88
2023-03-15T03:52:59.605Z,21.87
2023-03-15T03:56:59.571Z,21.87
2023-03-15T04:00:59.671Z,21.86
2023-03-15T04:04:59.941Z,21.86
2023-03-15T04:08:59.853Z,21.86
2023-03-15T04:12:59.883Z,21.84
2023-03-15T04:16:59.925Z,21.85
2023-03-15T04:21:00.017Z,21.84
2023-03-15T04:25:00.026Z,21.83
2023-03-15T04:29:00.062Z,21.81
2023-03-15T04:33:00.170Z,21.81
2023-03-15T04:37:00.042Z,21.80
2023-03-15T04:41:00.055Z,21.80
2023-03-15T04:45:00.025Z,21.79
2023-03-15T04:49:00.051Z,21.78
2023-03-15T04:53:00.001Z,21.78
2023-03-15T04:56:59.983Z,21.78
2023-03-15T05:01:00.045Z,21.78
2023-03-15T05:04:59.972Z,21.77
2023-03-15T05:08:59.916Z,21.77
2023-03-15T05:12:59.891Z,21.76
2023-03-15T05:16:59.886Z,21.76
2023-03-15T05:20:59.864Z,21.75
2023-03-15T05:24:59.863Z,21.75
2023-03-15T05:28:59.864Z,21.75
2023-03-15T05:32:59.914Z,21.75
2023-03-15T05:36:59.816Z,21.74
2023-03-15T05:40:59.793Z,21.73
2023-03-15T05:44:59.795Z,21.73
2023-03-15T05:48:59.756Z,21.73
2023-03-15T05:52:59.760Z,21.73
2023-03-15T05:56:59.745Z,21.73
2023-03-15T06:00:59.714Z,21.73
2023-03-15T06:04:59.734Z,21.74
2023-03-15T06:08:59.708Z,21.73
2023-03-15T06:12:59.708Z,21.75
2023-03-15T06:16:59.737Z,21.75
2023-03-15T06:20:59.678Z,21.75
2023-03-15T06:24:59.654Z,21.77
2023-03-15T06:28:59.661Z,21.77
2023-03-15T06:32:59.692Z,21.78
2023-03-15T06:37:00.059Z,21.79
2023-03-15T06:41:00.027Z,21.87
2023-03-15T06:45:00.034Z,21.98
2023-03-15T06:48:59.629Z,22.14
2023-03-15T06:53:00.132Z,22.29
2023-03-15T06:57:00.046Z,22.41
2023-03-15T07:00:59.560Z,22.54
2023-03-15T07:04:59.470Z,22.63
2023-03-15T07:08:59.544Z,22.68
2023-03-15T07:12:59.425Z,22.69
2023-03-15T07:16:59.377Z,22.71
2023-03-15T07:20:59.332Z,22.72
2023-03-15T07:24:59.283Z,22.74
2023-03-15T07:28:59.261Z,22.79
2023-03-15T07:32:59.693Z,22.82
2023-03-15T07:36:59.185Z,22.91
2023-03-15T07:40:59.124Z,22.98
2023-03-15T07:44:59.534Z,23.04
2023-03-15T07:48:59.531Z,23.10
2023-03-15T07:52:59.055Z,23.18
2023-03-15T07:56:59.253Z,23.23
2023-03-15T08:00:59.200Z,23.20
2023-03-15T08:04:59.536Z,23.15
2023-03-15T08:08:59.081Z,23.14
2023-03-15T08:12:59.089Z,23.15
2023-03-15T08:16:58.999Z,23.14
2023-03-15T08:20:58.985Z,23.17
2023-03-15T08:24:58.973Z,23.16
2023-03-15T08:28:58.936Z,23.13
2023-03-15T08:32:58.911Z,23.15
2023-03-15T08:36:59.119Z,23.15
2023-03-15T08:40:59.096Z,23.16
2023-03-15T08:44:59.094Z,23.22
2023-03-15T08:48:59.082Z,23.19
2023-03-15T08:52:58.689Z,23.11
2023-03-15T08:56:59.054Z,23.03
2023-03-15T09:00:58.657Z,22.95
2023-03-15T09:04:59.087Z,22.87
2023-03-15T09:08:58.591Z,22.82
2023-03-15T09:12:58.543Z,22.77
2023-03-15T09:16:58.612Z,22.74
2023-03-15T09:20:58.605Z,22.71
2023-03-15T09:24:58.437Z,22.68
2023-03-15T09:28:58.456Z,22.66
2023-03-15T09:32:58.611Z,22.65
2023-03-15T09:36:59.094Z,22.64
2023-03-15T09:40:59.101Z,22.74
2023-03-15T09:44:58.823Z,22.93
2023-03-15T09:48:59.616Z,23.00
2023-03-15T09:52:59.110Z,23.05
2023-03-15T09:56:59.146Z,23.03
2023-03-15T10:00:58.834Z,23.01
2023-03-15T10:04:59.116Z,23.03
2023-03-15T10:08:58.798Z,23.05
2023-03-15T10:12:58.765Z,23.06
2023-03-15T10:16:58.769Z,23.07
2023-03-15T10:20:58.719Z,23.08
2023-03-15T10:24:58.714Z,23.09
2023-03-15T10:28:58.708Z,23.09
2023-03-15T10:32:58.745Z,23.12
2023-03-15T10:36:58.665Z,23.08
2023-03-15T10:40:59.102Z,23.03
2023-03-15T10:45:00.166Z,23.05
2023-03-15T10:48:58.758Z,23.13
2023-03-15T10:52:58.726Z,23.31
2023-03-15T10:56:59.153Z,23.44
2023-03-15T11:00:58.618Z,23.54
2023-03-15T11:04:58.635Z,23.62
2023-03-15T11:08:58.566Z,23.67
2023-03-15T11:12:58.515Z,23.72
2023-03-15T11:16:58.496Z,23.69
2023-03-15T11:20:58.641Z,23.69
2023-03-15T11:24:58.548Z,23.75
2023-03-15T11:28:59.788Z,23.78
2023-03-15T11:32:58.644Z,23.73
2023-03-15T11:37:08.098Z,23.72
2023-03-15T11:40:59.663Z,23.48
2023-03-15T11:44:58.272Z,23.55
2023-03-15T11:48:58.243Z,23.72
2023-03-15T11:52:58.169Z,23.86
2023-03-15T11:56:58.727Z,23.98
2023-03-15T12:00:58.121Z,24.08
2023-03-15T12:05:01.808Z,24.17
2023-03-15T12:08:59.056Z,24.20
2023-03-15T12:12:58.039Z,24.29
2023-03-15T12:16:58.244Z,24.32
2023-03-15T12:20:58.235Z,24.27
2023-03-15T12:24:58.275Z,24.16
2023-03-15T12:28:58.674Z,24.18
2023-03-15T12:32:58.726Z,24.25
2023-03-15T12:36:58.235Z,24.32
2023-03-15T12:40:58.209Z,24.34
2023-03-15T12:44:58.331Z,24.38
2023-03-15T12:48:58.239Z,24.45
2023-03-15T12:52:58.235Z,24.58
2023-03-15T12:56:58.261Z,25.04
2023-03-15T13:00:58.352Z,25.24
2023-03-15T13:04:58.570Z,25.28
2023-03-15T13:08:58.665Z,29.14
2023-03-15T13:12:58.763Z,32.24
2023-03-15T13:16:58.914Z,28.30
2023-03-15T13:20:59.119Z,26.80
2023-03-15T13:24:59.200Z,25.66
2023-03-15T13:28:59.320Z,25.30
2023-03-15T13:32:59.468Z,25.18
2023-03-15T13:36:59.529Z,25.18
2023-03-15T13:40:59.657Z,25.13
2023-03-15T13:44:59.745Z,25.04
2023-03-15T13:48:59.944Z,24.99
2023-03-15T13:53:00.133Z,24.81
2023-03-15T13:57:00.374Z,24.65
2023-03-15T14:01:00.427Z,24.53
2023-03-15T14:05:00.413Z,24.45
2023-03-15T14:09:00.388Z,24.35
2023-03-15T14:13:00.412Z,24.42
2023-03-15T14:17:06.150Z,24.38
2023-03-15T14:21:01.385Z,24.29
2023-03-15T14:25:00.324Z,24.24
2023-03-15T14:29:02.499Z,24.20
2023-03-15T14:33:00.361Z,24.22
2023-03-15T14:37:00.236Z,24.17
2023-03-15T14:41:00.215Z,24.10
2023-03-15T14:45:00.219Z,24.06
2023-03-15T14:49:00.253Z,24.02
2023-03-15T14:53:00.269Z,23.96
2023-03-15T14:57:00.378Z,23.91
2023-03-15T15:01:00.538Z,23.86
2023-03-15T15:05:00.569Z,23.82
2023-03-15T15:09:00.658Z,23.78
2023-03-15T15:13:06.500Z,23.75
2023-03-15T15:17:01.824Z,23.74
2023-03-15T15:21:00.720Z,23.74
2023-03-15T15:25:00.697Z,23.74
2023-03-15T15:29:00.775Z,23.70
2023-03-15T15:33:00.913Z,23.77
2023-03-15T15:37:00.965Z,23.75
2023-03-15T15:41:01.089Z,23.70
2023-03-15T15:45:01.259Z,23.65
2023-03-15T15:49:01.379Z,23.60
2023-03-15T15:53:01.557Z,23.56
2023-03-15T15:57:01.756Z,23.51
2023-03-15T16:01:01.960Z,23.47
2023-03-15T16:05:02.147Z,23.43
2023-03-15T16:09:02.365Z,23.40
2023-03-15T16:13:02.315Z,23.35
2023-03-15T16:17:02.337Z,23.32
2023-03-15T16:21:02.260Z,23.29
2023-03-15T16:25:02.216Z,23.26
2023-03-15T16:29:02.163Z,23.23
2023-03-15T16:33:02.240Z,23.21
2023-03-15T16:37:02.105Z,23.19
2023-03-15T16:41:02.108Z,23.17
2023-03-15T16:45:02.045Z,23.14
2023-03-15T16:49:02.003Z,23.13
2023-03-15T16:53:02.012Z,23.10
2023-03-15T16:57:02.039Z,23.08
2023-03-15T17:01:02.037Z,23.06
2023-03-15T17:05:02.026Z,23.04
2023-03-15T17:09:01.992Z,23.01
2023-03-15T17:13:02.014Z,22.99
2023-03-15T17:17:01.991Z,22.97
2023-03-15T17:21:01.964Z,22.96
2023-03-15T17:25:01.927Z,22.93
2023-03-15T17:29:01.918Z,22.91
2023-03-15T17:33:02.037Z,22.90
2023-03-15T17:37:01.930Z,22.89
2023-03-15T17:41:01.984Z,22.87
2023-03-15T17:45:01.938Z,22.85
2023-03-15T17:49:01.966Z,22.84
2023-03-15T17:53:02.062Z,22.81
2023-03-15T17:57:02.037Z,22.80
2023-03-15T18:01:02.097Z,22.79
2023-03-15T18:05:02.107Z,22.77
2023-03-15T18:09:02.154Z,22.75
2023-03-15T18:13:02.211Z,22.74
2023-03-15T18:17:02.271Z,22.72
2023-03-15T18:21:02.374Z,22.71
2023-03-15T18:25:02.450Z,22.70
2023-03-15T18:29:02.521Z,22.69
2023-03-15T18:33:02.659Z,22.68
2023-03-15T18:37:02.715Z,22.67
2023-03-15T18:41:02.758Z,22.66
2023-03-15T18:45:02.852Z,22.67
2023-03-15T18:49:02.942Z,22.65
2023-03-15T18:53:05.056Z,22.63
2023-03-15T18:57:02.986Z,22.63
2023-03-15T19:01:02.959Z,22.61
2023-03-15T19:05:02.888Z,22.60
2023-03-15T19:09:02.905Z,22.59
2023-03-15T19:13:04.582Z,22.58
2023-03-15T19:17:02.870Z,22.57
2023-03-15T19:21:02.774Z,22.56
2023-03-15T19:25:02.778Z,22.54
2023-03-15T19:29:02.891Z,22.54
2023-03-15T19:33:03.075Z,22.53
2023-03-15T19:37:03.219Z,22.52
2023-03-15T19:41:03.372Z,22.50
2023-03-15T19:45:03.539Z,22.50
2023-03-15T19:49:03.719Z,22.49
2023-03-15T19:53:03.872Z,22.48
2023-03-15T19:57:04.051Z,22.46
2023-03-15T20:01:04.202Z,22.44
2023-03-15T20:05:04.408Z,22.45
2023-03-15T20:09:04.542Z,22.44
2023-03-15T20:13:04.719Z,22.42
2023-03-15T20:17:04.856Z,22.42
2023-03-15T20:21:05.032Z,22.41
2023-03-15T20:25:05.204Z,22.40
2023-03-15T20:29:05.396Z,22.40
2023-03-15T20:33:05.635Z,22.39
2023-03-15T20:37:05.738Z,22.38
2023-03-15T20:41:05.922Z,22.38
2023-03-15T20:45:06.147Z,22.36
2023-03-15T20:49:06.317Z,22.36
2023-03-15T20:53:06.490Z,22.34
2023-03-15T20:57:06.706Z,22.33
2023-03-15T21:01:06.995Z,22.32
2023-03-15T21:05:07.105Z,22.31
2023-03-15T21:09:07.273Z,22.30
2023-03-15T21:13:09.987Z,22.29
2023-03-15T21:17:07.488Z,22.28
2023-03-15T21:21:07.535Z,22.27
2023-03-15T21:25:07.391Z,22.27
2023-03-15T21:29:07.340Z,22.25
2023-03-15T21:33:07.368Z,22.24
2023-03-15T21:37:07.299Z,22.23
2023-03-15T21:41:07.265Z,22.22
2023-03-15T21:45:07.210Z,22.21
2023-03-15T21:49:07.129Z,22.20
2023-03-15T21:53:07.109Z,22.20
2023-03-15T21:57:07.306Z,22.18
2023-03-15T22:01:07.993Z,22.17
2023-03-15T22:05:07.232Z,22.17
2023-03-15T22:09:07.177Z,22.16
2023-03-15T22:13:07.156Z,22.14
2023-03-15T22:17:07.154Z,22.14
2023-03-15T22:21:07.094Z,22.13
2023-03-15T22:25:07.151Z,22.11
2023-03-15T22:29:07.144Z,22.11
2023-03-15T22:33:07.294Z,22.10
2023-03-15T22:37:07.048Z,22.10
2023-03-15T22:41:07.014Z,22.09
2023-03-15T22:45:06.998Z,22.09
2023-03-15T22:49:06.934Z,22.07
2023-03-15T22:53:06.907Z,22.07
2023-03-15T22:57:06.874Z,22.07
2023-03-15T23:01:06.886Z,22.05
2023-03-15T23:05:06.968Z,22.05
2023-03-15T23:09:06.914Z,22.04
2023-03-15T23:13:06.883Z,22.04
2023-03-15T23:17:06.866Z,22.04
2023-03-15T23:21:06.826Z,22.03
2023-03-15T23:25:06.786Z,22.02
2023-03-15T23:29:06.743Z,22.01
2023-03-15T23:33:06.756Z,22.00
2023-03-15T23:37:06.680Z,22.00
2023-03-15T23:41:06.661Z,21.98
2023-03-15T23:45:06.718Z,21.97
2023-03-15T23:49:06.703Z,21.98
2023-03-15T23:53:06.664Z,21.97
2023-03-15T23:57:06.629Z,21.96
